createdAt,value
2018-09-19T00:00:58.804Z,0.00
2018-09-19T00:01:58.774Z,0.00
2018-09-19T00:02:58.746Z,0.00
2018-09-19T00:03:58.725Z,0.00
2018-09-19T00:04:58.688Z,0.00
2018-09-19T00:05:58.664Z,0.00
2018-09-19T00:06:58.634Z,0.00
2018-09-19T00:07:58.609Z,0.00
2018-09-19T00:08:58.586Z,0.00
2018-09-19T00:09:58.552Z,0.00
2018-09-19T00:10:58.521Z,0.00
2018-09-19T00:11:58.526Z,0.00
2018-09-19T00:12:58.465Z,0.00
2018-09-19T00:13:58.446Z,0.00
2018-09-19T00:14:58.409Z,0.00
2018-09-19T00:15:58.381Z,0.00
2018-09-19T00:16:58.400Z,0.00
2018-09-19T00:17:58.327Z,0.00
2018-09-19T00:18:58.305Z,0.00
2018-09-19T00:19:58.277Z,0.00
2018-09-19T00:20:58.240Z,0.00
2018-09-19T00:21:58.215Z,0.00
2018-09-19T00:22:58.188Z,0.00
2018-09-19T00:23:58.164Z,0.00
2018-09-19T00:24:58.130Z,0.00
2018-09-19T00:25:58.100Z,0.00
2018-09-19T00:26:58.076Z,0.00
2018-09-19T00:27:58.044Z,0.00
2018-09-19T00:28:58.027Z,0.00
2018-09-19T00:29:57.989Z,0.00
2018-09-19T00:30:57.961Z,0.00
2018-09-19T00:31:57.938Z,0.00
2018-09-19T00:32:57.906Z,0.00
2018-09-19T00:33:57.876Z,0.00
2018-09-19T00:34:57.855Z,0.00
2018-09-19T00:35:57.819Z,0.00
2018-09-19T00:36:57.793Z,0.00
2018-09-19T00:37:57.761Z,0.00
2018-09-19T00:38:57.735Z,0.00
2018-09-19T00:39:57.715Z,0.00
2018-09-19T00:40:57.675Z,0.00
2018-09-19T00:41:57.650Z,0.00
2018-09-19T00:42:57.623Z,0.00
2018-09-19T00:43:57.598Z,0.00
2018-09-19T00:44:57.575Z,0.00
2018-09-19T00:45:57.536Z,0.00
2018-09-19T00:46:57.508Z,0.00
2018-09-19T00:47:57.482Z,0.00
2018-09-19T00:48:57.454Z,0.00
2018-09-19T00:49:57.434Z,0.00
2018-09-19T00:50:57.398Z,0.00
2018-09-19T00:51:57.371Z,0.00
2018-09-19T00:52:57.351Z,0.00
2018-09-19T00:53:57.318Z,0.00
2018-09-19T00:54:57.311Z,0.00
2018-09-19T00:55:57.255Z,0.00
2018-09-19T00:56:57.274Z,0.00
2018-09-19T00:57:57.201Z,0.00
2018-09-19T00:58:57.171Z,0.00
2018-09-19T00:59:57.153Z,0.00
2018-09-19T01:00:57.114Z,0.00
2018-09-19T01:01:57.084Z,0.00
2018-09-19T01:02:57.061Z,0.00
2018-09-19T01:03:57.029Z,0.00
2018-09-19T01:04:57.057Z,0.00
2018-09-19T01:05:56.978Z,0.00
2018-09-19T01:06:56.946Z,0.00
2018-09-19T01:07:56.918Z,0.00
2018-09-19T01:08:56.888Z,0.00
2018-09-19T01:09:56.862Z,0.00
2018-09-19T01:10:56.842Z,0.00
2018-09-19T01:11:56.806Z,0.00
2018-09-19T01:12:56.777Z,0.00
2018-09-19T01:13:56.747Z,0.00
2018-09-19T01:14:56.721Z,0.00
2018-09-19T01:15:56.696Z,0.00
2018-09-19T01:16:56.663Z,0.00
2018-09-19T01:17:56.633Z,0.00
2018-09-19T01:18:56.604Z,0.00
2018-09-19T01:19:56.578Z,0.00
2018-09-19T01:20:56.557Z,0.00
2018-09-19T01:21:56.526Z,0.00
2018-09-19T01:22:56.496Z,0.00
2018-09-19T01:23:56.465Z,0.00
2018-09-19T01:24:56.453Z,0.00
2018-09-19T01:25:56.415Z,0.00
2018-09-19T01:26:56.389Z,0.00
2018-09-19T01:27:56.358Z,0.00
2018-09-19T01:28:56.325Z,0.00
2018-09-19T01:29:56.295Z,0.00
2018-09-19T01:30:56.285Z,0.00
2018-09-19T01:31:56.242Z,0.00
2018-09-19T01:32:56.208Z,0.00
2018-09-19T01:33:56.184Z,0.00
2018-09-19T01:34:56.156Z,0.00
2018-09-19T01:35:56.148Z,0.00
2018-09-19T01:36:56.101Z,0.00
2018-09-19T01:37:56.069Z,0.00
2018-09-19T01:38:56.041Z,0.00
2018-09-19T01:39:56.015Z,0.00
2018-09-19T01:40:55.984Z,0.00
2018-09-19T01:41:55.964Z,0.00
2018-09-19T01:42:55.928Z,0.00
2018-09-19T01:43:56.107Z,0.00
2018-09-19T01:44:55.871Z,0.00
2018-09-19T01:45:55.845Z,0.00
2018-09-19T01:46:55.823Z,0.00
2018-09-19T01:47:55.792Z,0.00
2018-09-19T01:48:55.757Z,0.00
2018-09-19T01:49:55.730Z,0.00
2018-09-19T01:50:55.711Z,0.00
2018-09-19T01:51:55.689Z,0.00
2018-09-19T01:52:55.643Z,0.00
2018-09-19T01:53:55.620Z,0.00
2018-09-19T01:54:55.590Z,0.00
2018-09-19T01:55:55.561Z,0.00
2018-09-19T01:56:55.542Z,0.00
2018-09-19T01:57:55.502Z,0.00
2018-09-19T01:58:55.473Z,0.00
2018-09-19T01:59:55.447Z,0.00
2018-09-19T02:00:55.418Z,0.00
2018-09-19T02:01:55.398Z,0.00
2018-09-19T02:02:55.362Z,0.00
2018-09-19T02:03:55.335Z,0.00
2018-09-19T02:04:55.304Z,0.00
2018-09-19T02:05:55.277Z,0.00
2018-09-19T02:06:55.256Z,0.00
2018-09-19T02:07:55.218Z,0.00
2018-09-19T02:08:55.193Z,0.00
2018-09-19T02:09:55.162Z,0.00
2018-09-19T02:10:55.133Z,0.00
2018-09-19T02:11:55.116Z,0.00
2018-09-19T02:12:55.076Z,0.00
2018-09-19T02:13:55.054Z,0.00
2018-09-19T02:14:55.022Z,0.00
2018-09-19T02:15:54.992Z,0.00
2018-09-19T02:16:54.978Z,0.00
2018-09-19T02:17:54.939Z,0.00
2018-09-19T02:18:54.908Z,0.00
2018-09-19T02:19:54.882Z,0.00
2018-09-19T02:20:54.850Z,0.00
2018-09-19T02:21:54.821Z,0.00
2018-09-19T02:22:54.803Z,0.00
2018-09-19T02:23:54.764Z,0.00
2018-09-19T02:24:54.743Z,0.00
2018-09-19T02:25:54.777Z,0.00
2018-09-19T02:26:54.677Z,0.00
2018-09-19T02:27:54.661Z,0.00
2018-09-19T02:28:54.623Z,0.00
2018-09-19T02:29:54.596Z,0.00
2018-09-19T02:30:54.566Z,0.00
2018-09-19T02:31:54.536Z,0.00
2018-09-19T02:32:54.519Z,0.00
2018-09-19T02:33:54.478Z,0.00
2018-09-19T02:34:54.451Z,0.00
2018-09-19T02:35:54.422Z,0.00
2018-09-19T02:36:54.399Z,0.00
2018-09-19T02:37:54.374Z,0.00
2018-09-19T02:38:54.336Z,0.00
2018-09-19T02:39:54.311Z,0.00
2018-09-19T02:40:54.284Z,0.00
2018-09-19T02:41:54.255Z,0.00
2018-09-19T02:42:54.241Z,0.00
2018-09-19T02:43:54.193Z,0.00
2018-09-19T02:44:54.169Z,0.00
2018-09-19T02:45:54.144Z,0.00
2018-09-19T02:46:54.118Z,0.00
2018-09-19T02:47:54.091Z,0.00
2018-09-19T02:48:54.066Z,0.00
2018-09-19T02:49:54.024Z,0.00
2018-09-19T02:50:53.994Z,0.00
2018-09-19T02:51:53.965Z,0.00
2018-09-19T02:52:53.941Z,0.00
2018-09-19T02:53:53.917Z,0.00
2018-09-19T02:54:53.887Z,0.00
2018-09-19T02:55:53.850Z,0.00
2018-09-19T02:56:53.818Z,0.00
2018-09-19T02:57:53.795Z,0.00
2018-09-19T02:58:53.776Z,0.00
2018-09-19T02:59:53.734Z,0.00
2018-09-19T03:00:53.711Z,0.00
2018-09-19T03:01:53.678Z,0.00
2018-09-19T03:02:53.650Z,0.00
2018-09-19T03:03:53.627Z,0.00
2018-09-19T03:04:53.616Z,0.00
2018-09-19T03:05:53.566Z,0.00
2018-09-19T03:06:53.533Z,0.00
2018-09-19T03:07:53.505Z,0.00
2018-09-19T03:08:53.490Z,0.00
2018-09-19T03:09:53.451Z,0.00
2018-09-19T03:10:53.420Z,0.00
2018-09-19T03:11:53.390Z,0.00
2018-09-19T03:12:53.374Z,0.00
2018-09-19T03:13:53.345Z,0.00
2018-09-19T03:14:53.310Z,0.00
2018-09-19T03:15:53.279Z,0.00
2018-09-19T03:16:53.264Z,0.00
2018-09-19T03:17:53.217Z,0.00
2018-09-19T03:18:53.198Z,0.00
2018-09-19T03:19:53.163Z,0.00
2018-09-19T03:20:53.135Z,0.00
2018-09-19T03:21:53.105Z,0.00
2018-09-19T03:22:53.077Z,0.00
2018-09-19T03:23:54.437Z,0.00
2018-09-19T03:24:53.018Z,0.00
2018-09-19T03:25:52.995Z,0.00
2018-09-19T03:26:52.960Z,0.00
2018-09-19T03:27:52.932Z,0.00
2018-09-19T03:28:52.905Z,0.00
2018-09-19T03:29:52.884Z,0.00
2018-09-19T03:30:52.844Z,0.00
2018-09-19T03:31:52.832Z,0.00
2018-09-19T03:32:52.785Z,0.00
2018-09-19T03:33:52.753Z,0.00
2018-09-19T03:34:52.733Z,0.00
2018-09-19T03:35:52.697Z,0.00
2018-09-19T03:36:52.666Z,0.00
2018-09-19T03:37:52.639Z,0.00
2018-09-19T03:38:52.613Z,0.00
2018-09-19T03:39:52.590Z,0.00
2018-09-19T03:40:52.569Z,0.00
2018-09-19T03:41:52.521Z,0.00
2018-09-19T03:42:52.493Z,0.00
2018-09-19T03:43:52.465Z,0.00
2018-09-19T03:44:52.444Z,0.00
2018-09-19T03:45:52.404Z,0.00
2018-09-19T03:46:52.379Z,0.00
2018-09-19T03:47:52.352Z,0.00
2018-09-19T03:48:52.317Z,0.00
2018-09-19T03:49:52.302Z,0.00
2018-09-19T03:50:52.265Z,0.00
2018-09-19T03:51:52.230Z,0.00
2018-09-19T03:52:52.206Z,0.00
2018-09-19T03:53:52.173Z,0.00
2018-09-19T03:54:52.152Z,0.00
2018-09-19T03:55:52.115Z,0.00
2018-09-19T03:56:52.084Z,0.00
2018-09-19T03:57:52.055Z,0.00
2018-09-19T03:58:52.033Z,0.00
2018-09-19T03:59:52.020Z,0.00
2018-09-19T04:00:51.968Z,0.00
2018-09-19T04:01:51.940Z,0.00
2018-09-19T04:02:51.911Z,0.00
2018-09-19T04:03:51.884Z,0.00
2018-09-19T04:04:51.865Z,0.00
2018-09-19T04:05:51.824Z,0.00
2018-09-19T04:06:51.796Z,0.00
2018-09-19T04:07:51.764Z,0.00
2018-09-19T04:08:51.742Z,0.00
2018-09-19T04:09:51.718Z,0.00
2018-09-19T04:10:51.676Z,0.00
2018-09-19T04:11:51.651Z,0.00
2018-09-19T04:12:51.617Z,0.00
2018-09-19T04:13:51.592Z,0.00
2018-09-19T04:14:51.572Z,0.00
2018-09-19T04:15:51.536Z,0.00
2018-09-19T04:16:51.503Z,0.00
2018-09-19T04:17:51.501Z,0.00
2018-09-19T04:18:51.440Z,0.00
2018-09-19T04:19:51.410Z,0.00
2018-09-19T04:20:51.390Z,0.00
2018-09-19T04:21:51.365Z,0.00
2018-09-19T04:22:51.324Z,0.00
2018-09-19T04:23:51.293Z,0.00
2018-09-19T04:24:51.264Z,0.00
2018-09-19T04:25:51.241Z,0.00
2018-09-19T04:26:51.206Z,0.00
2018-09-19T04:27:51.176Z,0.00
2018-09-19T04:28:51.147Z,0.00
2018-09-19T04:29:51.145Z,0.00
2018-09-19T04:30:51.096Z,0.00
2018-09-19T04:31:51.058Z,0.00
2018-09-19T04:32:51.032Z,0.00
2018-09-19T04:33:51.006Z,0.00
2018-09-19T04:34:50.996Z,0.00
2018-09-19T04:35:50.950Z,0.00
2018-09-19T04:36:50.923Z,0.00
2018-09-19T04:37:50.882Z,0.00
2018-09-19T04:38:50.852Z,4.00
2018-09-19T04:39:50.821Z,4.00
2018-09-19T04:40:50.797Z,0.00
2018-09-19T04:41:50.780Z,0.00
2018-09-19T04:42:50.733Z,4.00
2018-09-19T04:43:50.704Z,4.00
2018-09-19T04:44:50.677Z,4.00
2018-09-19T04:45:50.650Z,8.00
2018-09-19T04:46:50.629Z,4.00
2018-09-19T04:47:50.593Z,8.00
2018-09-19T04:48:50.558Z,8.00
2018-09-19T04:49:50.535Z,12.00
2018-09-19T04:50:50.502Z,12.00
2018-09-19T04:51:50.492Z,16.00
2018-09-19T04:52:50.437Z,16.00
2018-09-19T04:53:50.410Z,16.00
2018-09-19T04:54:50.380Z,24.00
2018-09-19T04:55:50.350Z,28.00
2018-09-19T04:56:50.329Z,32.00
2018-09-19T04:57:50.292Z,32.00
2018-09-19T04:58:50.262Z,40.00
2018-09-19T04:59:50.232Z,48.00
2018-09-19T05:00:50.222Z,52.00
2018-09-19T05:01:50.182Z,60.00
2018-09-19T05:02:50.149Z,68.00
2018-09-19T05:03:50.114Z,76.00
2018-09-19T05:04:50.083Z,84.00
2018-09-19T05:05:50.069Z,96.00
2018-09-19T05:06:50.033Z,104.00
2018-09-19T05:07:49.994Z,116.00
2018-09-19T05:08:49.966Z,124.00
2018-09-19T05:09:49.937Z,136.00
2018-09-19T05:10:49.905Z,148.00
2018-09-19T05:11:49.884Z,160.00
2018-09-19T05:12:49.845Z,172.00
2018-09-19T05:13:49.815Z,184.00
2018-09-19T05:14:49.786Z,200.00
2018-09-19T05:15:49.756Z,216.00
2018-09-19T05:16:49.735Z,228.00
2018-09-19T05:17:49.700Z,244.00
2018-09-19T05:18:49.668Z,260.00
2018-09-19T05:19:49.638Z,280.00
2018-09-19T05:20:49.606Z,296.00
2018-09-19T05:21:49.593Z,316.00
2018-09-19T05:22:49.557Z,336.00
2018-09-19T05:23:49.518Z,356.00
2018-09-19T05:24:49.495Z,376.00
2018-09-19T05:25:49.456Z,396.00
2018-09-19T05:26:49.435Z,412.00
2018-09-19T05:27:49.419Z,436.00
2018-09-19T05:28:49.379Z,452.00
2018-09-19T05:29:49.342Z,476.00
2018-09-19T05:30:49.312Z,496.00
2018-09-19T05:31:49.278Z,520.00
2018-09-19T05:32:49.255Z,544.00
2018-09-19T05:33:49.223Z,564.00
2018-09-19T05:34:49.193Z,584.00
2018-09-19T05:35:49.159Z,608.00
2018-09-19T05:36:49.131Z,628.00
2018-09-19T05:37:49.115Z,644.00
2018-09-19T05:38:49.084Z,668.00
2018-09-19T05:39:49.039Z,684.00
2018-09-19T05:40:49.014Z,712.00
2018-09-19T05:41:48.983Z,736.00
2018-09-19T05:42:48.972Z,756.00
2018-09-19T05:43:48.924Z,776.00
2018-09-19T05:44:48.893Z,796.00
2018-09-19T05:45:48.862Z,820.00
2018-09-19T05:46:48.835Z,856.00
2018-09-19T05:47:48.802Z,888.00
2018-09-19T05:48:48.789Z,928.00
2018-09-19T05:49:48.743Z,968.00
2018-09-19T05:50:48.714Z,1004.00
2018-09-19T05:51:48.697Z,1040.00
2018-09-19T05:52:48.660Z,1080.00
2018-09-19T05:53:48.684Z,1120.00
2018-09-19T05:54:48.605Z,1168.00
2018-09-19T05:55:48.570Z,1220.00
2018-09-19T05:56:48.558Z,1264.00
2018-09-19T05:57:48.505Z,1308.00
2018-09-19T05:58:48.486Z,1336.00
2018-09-19T05:59:48.449Z,1368.00
2018-09-19T06:00:48.413Z,1400.00
2018-09-19T06:01:48.384Z,1448.00
2018-09-19T06:02:48.358Z,1552.00
2018-09-19T06:03:48.333Z,1624.00
2018-09-19T06:04:48.325Z,1768.00
2018-09-19T06:05:48.270Z,1728.00
2018-09-19T06:06:48.240Z,1660.00
2018-09-19T06:07:48.205Z,1916.00
2018-09-19T06:08:48.189Z,2368.00
2018-09-19T06:09:48.149Z,2704.00
2018-09-19T06:10:48.119Z,2068.00
2018-09-19T06:11:48.088Z,1704.00
2018-09-19T06:12:48.121Z,1724.00
2018-09-19T06:13:48.033Z,1752.00
2018-09-19T06:14:47.997Z,1772.00
2018-09-19T06:15:47.970Z,1796.00
2018-09-19T06:16:47.937Z,1820.00
2018-09-19T06:17:47.908Z,1840.00
2018-09-19T06:18:47.896Z,1856.00
2018-09-19T06:19:47.851Z,1872.00
2018-09-19T06:20:47.827Z,1892.00
2018-09-19T06:21:47.790Z,1908.00
2018-09-19T06:22:47.761Z,1924.00
2018-09-19T06:23:47.732Z,1940.00
2018-09-19T06:24:47.756Z,1960.00
2018-09-19T06:25:47.675Z,1972.00
2018-09-19T06:26:47.659Z,1988.00
2018-09-19T06:27:47.614Z,2008.00
2018-09-19T06:28:47.585Z,2004.00
2018-09-19T06:29:47.567Z,2020.00
2018-09-19T06:30:47.529Z,2040.00
2018-09-19T06:31:47.495Z,2052.00
2018-09-19T06:32:47.528Z,2068.00
2018-09-19T06:33:47.455Z,2084.00
2018-09-19T06:34:47.423Z,2100.00
2018-09-19T06:35:47.379Z,2112.00
2018-09-19T06:36:47.349Z,2128.00
2018-09-19T06:37:47.321Z,2144.00
2018-09-19T06:38:47.292Z,2156.00
2018-09-19T06:39:47.269Z,2172.00
2018-09-19T06:40:47.407Z,2180.00
2018-09-19T06:41:47.203Z,2200.00
2018-09-19T06:42:47.178Z,2212.00
2018-09-19T06:43:47.150Z,2228.00
2018-09-19T06:44:47.127Z,2240.00
2018-09-19T06:45:47.143Z,2256.00
2018-09-19T06:46:47.122Z,2268.00
2018-09-19T06:47:47.029Z,2284.00
2018-09-19T06:48:47.004Z,2296.00
2018-09-19T06:49:46.980Z,2308.00
2018-09-19T06:50:46.945Z,2324.00
2018-09-19T06:51:46.958Z,2340.00
2018-09-19T06:52:46.885Z,2352.00
2018-09-19T06:53:46.866Z,2372.00
2018-09-19T06:54:46.834Z,2380.00
2018-09-19T06:55:46.804Z,2400.00
2018-09-19T06:56:46.767Z,2416.00
2018-09-19T06:57:46.743Z,2428.00
2018-09-19T06:58:46.713Z,2448.00
2018-09-19T06:59:46.707Z,2468.00
2018-09-19T07:00:46.665Z,2484.00
2018-09-19T07:01:46.625Z,2508.00
2018-09-19T07:02:46.596Z,2532.00
2018-09-19T07:03:46.567Z,2552.00
2018-09-19T07:04:46.539Z,2576.00
2018-09-19T07:05:46.574Z,2600.00
2018-09-19T07:06:46.485Z,2612.00
2018-09-19T07:07:46.452Z,2616.00
2018-09-19T07:08:46.475Z,2616.00
2018-09-19T07:09:46.397Z,2612.00
2018-09-19T07:10:46.379Z,2596.00
2018-09-19T07:11:46.341Z,2568.00
2018-09-19T07:12:46.314Z,2548.00
2018-09-19T07:13:46.280Z,2524.00
2018-09-19T07:14:46.260Z,2500.00
2018-09-19T07:15:46.233Z,2484.00
2018-09-19T07:16:46.195Z,2472.00
2018-09-19T07:17:46.167Z,2460.00
2018-09-19T07:18:46.196Z,2456.00
2018-09-19T07:19:46.108Z,2464.00
2018-09-19T07:20:46.091Z,2464.00
2018-09-19T07:21:46.058Z,2468.00
2018-09-19T07:22:46.026Z,2476.00
2018-09-19T07:23:46.054Z,2472.00
2018-09-19T07:24:45.968Z,2464.00
2018-09-19T07:25:45.949Z,2472.00
2018-09-19T07:26:45.912Z,2460.00
2018-09-19T07:27:45.881Z,2464.00
2018-09-19T07:28:45.857Z,2464.00
2018-09-19T07:29:45.847Z,2456.00
2018-09-19T07:30:45.819Z,2444.00
2018-09-19T07:31:45.770Z,2452.00
2018-09-19T07:32:45.739Z,2488.00
2018-09-19T07:33:45.712Z,2504.00
2018-09-19T07:34:45.685Z,2532.00
2018-09-19T07:35:45.661Z,2536.00
2018-09-19T07:36:45.638Z,2540.00
2018-09-19T07:37:45.601Z,2544.00
2018-09-19T07:38:45.573Z,2544.00
2018-09-19T07:39:45.548Z,2544.00
2018-09-19T07:40:45.516Z,2532.00
2018-09-19T07:41:45.497Z,2536.00
2018-09-19T07:42:45.466Z,2532.00
2018-09-19T07:43:45.436Z,2540.00
2018-09-19T07:44:45.404Z,2540.00
2018-09-19T07:45:45.378Z,2544.00
2018-09-19T07:46:45.432Z,2544.00
2018-09-19T07:47:45.320Z,2540.00
2018-09-19T07:48:45.297Z,2548.00
2018-09-19T07:49:45.263Z,2552.00
2018-09-19T07:50:45.237Z,2552.00
2018-09-19T07:51:45.232Z,2552.00
2018-09-19T07:52:45.182Z,2552.00
2018-09-19T07:53:45.154Z,2556.00
2018-09-19T07:54:45.181Z,2564.00
2018-09-19T07:55:45.263Z,2564.00
2018-09-19T07:56:45.085Z,2568.00
2018-09-19T07:57:45.044Z,2576.00
2018-09-19T07:58:45.020Z,2588.00
2018-09-19T07:59:44.990Z,2592.00
2018-09-19T08:00:45.073Z,2592.00
2018-09-19T08:01:44.942Z,2600.00
2018-09-19T08:02:44.905Z,2604.00
2018-09-19T08:03:44.875Z,2616.00
2018-09-19T08:04:44.847Z,2616.00
2018-09-19T08:05:44.822Z,2620.00
2018-09-19T08:06:44.802Z,2624.00
2018-09-19T08:07:44.765Z,2632.00
2018-09-19T08:08:44.736Z,2636.00
2018-09-19T08:09:44.710Z,2640.00
2018-09-19T08:10:44.686Z,2652.00
2018-09-19T08:11:44.675Z,2656.00
2018-09-19T08:12:44.628Z,2656.00
2018-09-19T08:13:44.602Z,2656.00
2018-09-19T08:14:44.571Z,2656.00
2018-09-19T08:15:44.547Z,2664.00
2018-09-19T08:16:44.575Z,2672.00
2018-09-19T08:17:44.499Z,2688.00
2018-09-19T08:18:44.469Z,2700.00
2018-09-19T08:19:44.438Z,2712.00
2018-09-19T08:20:44.409Z,2720.00
2018-09-19T08:21:44.383Z,2724.00
2018-09-19T08:22:44.436Z,2732.00
2018-09-19T08:23:44.328Z,2744.00
2018-09-19T08:24:44.303Z,2748.00
2018-09-19T08:25:44.277Z,2752.00
2018-09-19T08:26:44.249Z,2740.00
2018-09-19T08:27:44.239Z,2724.00
2018-09-19T08:28:44.255Z,2744.00
2018-09-19T08:29:44.184Z,2744.00
2018-09-19T08:30:44.143Z,2744.00
2018-09-19T08:31:44.142Z,2740.00
2018-09-19T08:32:44.091Z,2732.00
2018-09-19T08:33:44.067Z,2732.00
2018-09-19T08:34:44.042Z,2736.00
2018-09-19T08:35:44.001Z,2740.00
2018-09-19T08:36:43.979Z,2744.00
2018-09-19T08:37:43.972Z,2748.00
2018-09-19T08:38:43.922Z,2752.00
2018-09-19T08:39:43.898Z,2752.00
2018-09-19T08:40:43.950Z,2748.00
2018-09-19T08:41:43.843Z,2740.00
2018-09-19T08:42:43.816Z,2732.00
2018-09-19T08:43:43.800Z,2728.00
2018-09-19T08:44:43.760Z,2720.00
2018-09-19T08:45:43.733Z,2724.00
2018-09-19T08:46:43.716Z,2720.00
2018-09-19T08:47:43.712Z,2728.00
2018-09-19T08:48:43.665Z,2736.00
2018-09-19T08:49:43.636Z,2740.00
2018-09-19T08:50:43.629Z,2748.00
2018-09-19T08:51:43.579Z,2752.00
2018-09-19T08:52:43.557Z,2756.00
2018-09-19T08:53:43.535Z,2764.00
2018-09-19T08:54:43.529Z,2764.00
2018-09-19T08:55:43.471Z,2772.00
2018-09-19T08:56:43.442Z,2780.00
2018-09-19T08:57:43.414Z,2784.00
2018-09-19T08:58:43.399Z,2796.00
2018-09-19T08:59:43.363Z,2808.00
2018-09-19T09:00:43.340Z,2808.00
2018-09-19T09:01:43.311Z,2816.00
2018-09-19T09:02:43.287Z,2828.00
2018-09-19T09:03:43.265Z,2836.00
2018-09-19T09:04:43.228Z,2840.00
2018-09-19T09:05:43.207Z,2852.00
2018-09-19T09:06:43.177Z,2856.00
2018-09-19T09:07:43.150Z,2864.00
2018-09-19T09:08:43.126Z,2872.00
2018-09-19T09:09:43.096Z,2884.00
2018-09-19T09:10:43.075Z,2896.00
2018-09-19T09:11:43.044Z,2900.00
2018-09-19T09:12:43.116Z,2900.00
2018-09-19T09:13:43.011Z,2900.00
2018-09-19T09:14:42.966Z,2900.00
2018-09-19T09:15:42.943Z,2896.00
2018-09-19T09:16:42.912Z,2892.00
2018-09-19T09:17:42.890Z,2880.00
2018-09-19T09:18:42.862Z,2880.00
2018-09-19T09:19:42.896Z,2876.00
2018-09-19T09:20:42.814Z,2876.00
2018-09-19T09:21:42.781Z,2864.00
2018-09-19T09:22:42.756Z,2852.00
2018-09-19T09:23:42.729Z,2844.00
2018-09-19T09:24:42.709Z,2844.00
2018-09-19T09:25:42.680Z,2840.00
2018-09-19T09:26:42.707Z,2832.00
2018-09-19T09:27:42.624Z,2828.00
2018-09-19T09:28:42.599Z,2840.00
2018-09-19T09:29:42.584Z,2836.00
2018-09-19T09:30:42.552Z,2836.00
2018-09-19T09:31:42.525Z,2832.00
2018-09-19T09:32:42.499Z,2832.00
2018-09-19T09:33:42.473Z,2828.00
2018-09-19T09:34:42.459Z,2816.00
2018-09-19T09:35:42.418Z,2816.00
2018-09-19T09:36:42.439Z,2808.00
2018-09-19T09:37:42.366Z,2828.00
2018-09-19T09:38:42.343Z,2828.00
2018-09-19T09:39:42.324Z,2860.00
2018-09-19T09:40:42.296Z,2920.00
2018-09-19T09:41:42.265Z,3000.00
2018-09-19T09:42:42.240Z,3168.00
2018-09-19T09:43:42.218Z,3216.00
2018-09-19T09:44:42.201Z,3176.00
2018-09-19T09:45:42.160Z,3304.00
2018-09-19T09:46:42.141Z,3428.00
2018-09-19T09:47:42.108Z,3580.00
2018-09-19T09:48:42.083Z,3804.00
2018-09-19T09:49:42.065Z,4276.00
2018-09-19T09:50:42.034Z,4808.00
2018-09-19T09:51:42.010Z,4756.00
2018-09-19T09:52:41.979Z,4696.00
2018-09-19T09:53:41.956Z,4300.00
2018-09-19T09:54:41.939Z,3592.00
2018-09-19T09:55:41.905Z,3164.00
2018-09-19T09:56:41.877Z,2988.00
2018-09-19T09:57:41.858Z,2932.00
2018-09-19T09:58:41.830Z,3100.00
2018-09-19T09:59:41.824Z,3096.00
2018-09-19T10:00:41.777Z,3068.00
2018-09-19T10:01:41.753Z,3028.00
2018-09-19T10:02:41.733Z,3004.00
2018-09-19T10:03:41.706Z,2996.00
2018-09-19T10:04:41.676Z,3004.00
2018-09-19T10:05:41.659Z,3008.00
2018-09-19T10:06:41.629Z,2996.00
2018-09-19T10:07:41.601Z,2984.00
2018-09-19T10:08:41.572Z,3020.00
2018-09-19T10:09:41.549Z,3044.00
2018-09-19T10:10:41.535Z,3360.00
2018-09-19T10:11:41.500Z,3132.00
2018-09-19T10:12:41.483Z,3100.00
2018-09-19T10:13:41.499Z,3060.00
2018-09-19T10:14:41.423Z,3176.00
2018-09-19T10:15:41.411Z,3328.00
2018-09-19T10:16:41.373Z,3288.00
2018-09-19T10:17:41.353Z,3216.00
2018-09-19T10:18:41.327Z,3364.00
2018-09-19T10:19:41.295Z,3444.00
2018-09-19T10:20:41.285Z,3672.00
2018-09-19T10:21:41.251Z,4004.00
2018-09-19T10:22:41.221Z,3928.00
2018-09-19T10:23:41.197Z,4012.00
2018-09-19T10:24:41.170Z,3956.00
2018-09-19T10:25:41.146Z,4436.00
2018-09-19T10:26:41.134Z,4908.00
2018-09-19T10:27:41.127Z,5260.00
2018-09-19T10:28:41.072Z,5188.00
2018-09-19T10:29:41.086Z,5264.00
2018-09-19T10:30:41.024Z,4768.00
2018-09-19T10:31:41.005Z,4748.00
2018-09-19T10:32:40.993Z,4528.00
2018-09-19T10:33:40.948Z,4408.00
2018-09-19T10:34:40.922Z,4416.00
2018-09-19T10:35:40.901Z,4464.00
2018-09-19T10:36:40.873Z,5372.00
2018-09-19T10:37:40.848Z,6216.00
2018-09-19T10:38:40.835Z,5428.00
2018-09-19T10:39:40.798Z,5268.00
2018-09-19T10:40:40.772Z,5548.00
2018-09-19T10:41:40.750Z,4972.00
2018-09-19T10:42:40.733Z,4632.00
2018-09-19T10:43:40.709Z,4860.00
2018-09-19T10:44:40.677Z,5116.00
2018-09-19T10:45:40.655Z,5396.00
2018-09-19T10:46:40.632Z,5372.00
2018-09-19T10:47:40.604Z,4996.00
2018-09-19T10:48:40.588Z,5152.00
2018-09-19T10:49:40.558Z,5960.00
2018-09-19T10:50:40.531Z,6024.00
2018-09-19T10:51:40.509Z,5508.00
2018-09-19T10:52:40.482Z,5380.00
2018-09-19T10:53:40.463Z,5468.00
2018-09-19T10:54:40.433Z,6164.00
2018-09-19T10:55:40.428Z,6788.00
2018-09-19T10:56:40.383Z,6268.00
2018-09-19T10:57:40.366Z,6728.00
2018-09-19T10:58:40.359Z,6720.00
2018-09-19T10:59:40.312Z,6972.00
2018-09-19T11:00:40.289Z,6328.00
2018-09-19T11:01:40.267Z,5856.00
2018-09-19T11:02:40.241Z,6104.00
2018-09-19T11:03:40.214Z,6996.00
2018-09-19T11:04:40.202Z,6524.00
2018-09-19T11:05:40.167Z,6916.00
2018-09-19T11:06:40.142Z,7272.00
2018-09-19T11:07:40.123Z,6928.00
2018-09-19T11:08:40.105Z,6508.00
2018-09-19T11:09:40.080Z,5548.00
2018-09-19T11:10:40.048Z,5748.00
2018-09-19T11:11:40.029Z,6196.00
2018-09-19T11:12:39.994Z,6492.00
2018-09-19T11:13:39.980Z,6816.00
2018-09-19T11:14:39.965Z,6172.00
2018-09-19T11:15:39.929Z,5356.00
2018-09-19T11:16:39.903Z,5220.00
2018-09-19T11:17:39.881Z,5916.00
2018-09-19T11:18:39.861Z,6964.00
2018-09-19T11:19:39.842Z,6648.00
2018-09-19T11:20:39.811Z,6376.00
2018-09-19T11:21:39.795Z,6484.00
2018-09-19T11:22:39.763Z,6204.00
2018-09-19T11:23:39.742Z,5700.00
2018-09-19T11:24:39.747Z,5740.00
2018-09-19T11:25:39.692Z,5480.00
2018-09-19T11:26:39.667Z,5680.00
2018-09-19T11:27:39.638Z,6936.00
2018-09-19T11:28:39.622Z,7376.00
2018-09-19T11:29:39.604Z,7740.00
2018-09-19T11:30:39.581Z,6636.00
2018-09-19T11:31:39.549Z,6520.00
2018-09-19T11:32:39.528Z,6668.00
2018-09-19T11:33:39.557Z,6488.00
2018-09-19T11:34:39.485Z,7020.00
2018-09-19T11:35:39.465Z,7308.00
2018-09-19T11:36:39.431Z,7464.00
2018-09-19T11:37:39.408Z,7488.00
2018-09-19T11:38:39.388Z,7456.00
2018-09-19T11:39:39.361Z,7340.00
2018-09-19T11:40:39.577Z,6720.00
2018-09-19T11:41:39.318Z,6788.00
2018-09-19T11:42:39.291Z,6920.00
2018-09-19T11:43:39.266Z,6456.00
2018-09-19T11:44:39.244Z,6508.00
2018-09-19T11:45:39.223Z,6464.00
2018-09-19T11:46:39.208Z,5880.00
2018-09-19T11:47:39.180Z,5720.00
2018-09-19T11:48:39.211Z,5316.00
2018-09-19T11:49:39.129Z,5584.00
2018-09-19T11:50:39.110Z,6272.00
2018-09-19T11:51:39.091Z,5688.00
2018-09-19T11:52:39.057Z,6208.00
2018-09-19T11:53:39.038Z,6492.00
2018-09-19T11:54:39.010Z,5720.00
2018-09-19T11:55:38.988Z,5736.00
2018-09-19T11:56:38.979Z,6480.00
2018-09-19T11:57:38.940Z,5956.00
2018-09-19T11:58:38.922Z,6208.00
2018-09-19T11:59:38.895Z,5444.00
2018-09-19T12:00:38.872Z,5236.00
2018-09-19T12:01:38.865Z,5032.00
2018-09-19T12:02:38.824Z,4964.00
2018-09-19T12:03:38.800Z,4740.00
2018-09-19T12:04:38.779Z,4708.00
2018-09-19T12:05:38.754Z,4684.00
2018-09-19T12:06:38.743Z,4612.00
2018-09-19T12:07:38.707Z,4580.00
2018-09-19T12:08:38.690Z,4472.00
2018-09-19T12:09:38.662Z,4660.00
2018-09-19T12:10:38.635Z,4592.00
2018-09-19T12:11:38.642Z,4148.00
2018-09-19T12:12:38.590Z,3740.00
2018-09-19T12:13:38.565Z,3588.00
2018-09-19T12:14:38.541Z,3856.00
2018-09-19T12:15:38.518Z,3760.00
2018-09-19T12:16:38.493Z,4528.00
2018-09-19T12:17:38.482Z,4332.00
2018-09-19T12:18:38.450Z,4008.00
2018-09-19T12:19:38.433Z,3904.00
2018-09-19T12:20:38.399Z,4012.00
2018-09-19T12:21:38.377Z,3992.00
2018-09-19T12:22:38.364Z,4128.00
2018-09-19T12:23:38.329Z,4416.00
2018-09-19T12:24:38.305Z,4528.00
2018-09-19T12:25:38.281Z,4684.00
2018-09-19T12:26:38.326Z,4568.00
2018-09-19T12:27:38.243Z,5356.00
2018-09-19T12:28:38.213Z,6364.00
2018-09-19T12:29:38.185Z,5824.00
2018-09-19T12:30:38.161Z,6724.00
2018-09-19T12:31:38.137Z,5784.00
2018-09-19T12:32:38.125Z,5620.00
2018-09-19T12:33:38.090Z,6184.00
2018-09-19T12:34:38.068Z,5504.00